TimeEDT,TemperatureF,Dew PointF,Humidity,Sea Level PressureIn,VisibilityMPH,Wind Direction,Wind SpeedMPH,Gust SpeedMPH,PrecipitationIn,Events,Conditions,WindDirDegrees,DateUTC
12:53 AM,46.9,45.0,93,30.22,10.0,Calm,Calm,-,N/A,,Mostly Cloudy,0,2012-10-09 04:53:00
1:53 AM,48.9,44.1,83,30.21,10.0,North,3.5,-,N/A,,Overcast,350,2012-10-09 05:53:00
2:53 AM,48.0,45.0,89,30.20,10.0,Calm,Calm,-,N/A,,Overcast,0,2012-10-09 06:53:00
4:53 AM,50.0,44.6,82,30.19,10.0,NNW,3.5,-,N/A,,Overcast,330,2012-10-09 08:53:00
5:53 AM,48.9,45.0,86,30.19,10.0,North,3.5,-,0.02,Rain,Light Rain,350,2012-10-09 09:53:00
6:53 AM,48.9,46.0,90,30.19,10.0,NNW,4.6,-,0.00,,Overcast,330,2012-10-09 10:53:00
7:53 AM,48.9,46.0,90,30.19,10.0,Calm,Calm,-,0.01,,Overcast,0,2012-10-09 11:53:00
8:53 AM,51.1,46.9,86,30.18,10.0,North,3.5,-,0.00,,Overcast,10,2012-10-09 12:53:00
9:53 AM,54.0,46.9,77,30.19,10.0,NNE,5.8,-,N/A,,Overcast,30,2012-10-09 13:53:00
10:53 AM,55.9,46.9,72,30.19,10.0,Variable,5.8,-,N/A,,Overcast,0,2012-10-09 14:53:00
11:53 AM,57.0,48.0,72,30.17,10.0,NE,5.8,-,N/A,,Overcast,50,2012-10-09 15:53:00
12:20 PM,57.2,48.2,72,30.16,10.0,Calm,Calm,-,N/A,,Overcast,0,2012-10-09 16:20:00
12:53 PM,57.9,48.9,72,30.15,10.0,NE,5.8,-,N/A,,Overcast,40,2012-10-09 16:53:00
1:53 PM,57.9,50.0,75,30.13,10.0,Variable,3.5,-,N/A,,Overcast,0,2012-10-09 17:53:00
2:53 PM,57.9,50.0,75,30.12,10.0,East,4.6,-,N/A,,Overcast,90,2012-10-09 18:53:00
3:53 PM,59.0,51.1,75,30.11,10.0,East,5.8,-,N/A,,Overcast,90,2012-10-09 19:53:00
4:53 PM,57.9,51.1,78,30.11,10.0,Calm,Calm,-,N/A,,Overcast,0,2012-10-09 20:53:00
5:53 PM,57.0,53.1,87,30.11,10.0,Calm,Calm,-,0.00,,Overcast,0,2012-10-09 21:53:00
6:53 PM,55.9,53.1,90,30.10,7.0,Calm,Calm,-,0.00,Rain,Light Rain,0,2012-10-09 22:53:00
7:50 PM,55.4,53.6,94,30.09,10.0,NNE,4.6,-,0.00,,Overcast,20,2012-10-09 23:50:00
7:53 PM,55.9,53.1,90,30.09,10.0,NNE,4.6,-,0.00,,Overcast,20,2012-10-09 23:53:00
8:53 PM,55.9,53.1,90,30.10,10.0,Variable,3.5,-,N/A,,Overcast,0,2012-10-10 00:53:00
9:53 PM,55.9,53.1,90,30.09,10.0,Calm,Calm,-,N/A,,Overcast,0,2012-10-10 01:53:00
10:53 PM,55.9,53.1,90,30.08,10.0,Calm,Calm,-,N/A,,Overcast,0,2012-10-10 02:53:00
11:02 PM,55.4,51.8,88,30.08,10.0,Calm,Calm,-,N/A,,Overcast,0,2012-10-10 03:02:00
11:46 PM,55.4,51.8,88,30.07,9.0,Calm,Calm,-,0.00,Rain,Light Rain,0,2012-10-10 03:46:00
11:53 PM,55.0,52.0,89,30.07,10.0,Calm,Calm,-,0.00,Rain,Light Rain,0,2012-10-10 03:53:00